createdAt,value
2019-04-14T00:00:53.282Z,15.50
2019-04-14T00:03:39.033Z,15.77
2019-04-14T00:06:09.126Z,16.47
2019-04-14T00:08:39.461Z,14.93
2019-04-14T00:11:10.353Z,16.13
2019-04-14T00:13:41.927Z,14.80
2019-04-14T00:16:11.779Z,14.13
2019-04-14T00:18:43.142Z,15.67
2019-04-14T00:21:12.988Z,16.17
2019-04-14T00:23:43.490Z,16.20
2019-04-14T00:26:27.349Z,15.70
2019-04-14T00:28:57.921Z,15.30
2019-04-14T00:31:28.955Z,15.47
2019-04-14T00:34:01.430Z,14.83
2019-04-14T00:36:48.156Z,17.73
2019-04-14T00:39:20.758Z,15.57
2019-04-14T00:42:10.185Z,15.77
2019-04-14T00:44:49.579Z,16.27
2019-04-14T00:47:24.659Z,15.13
2019-04-14T00:49:55.424Z,15.73
2019-04-14T00:52:27.678Z,16.27
2019-04-14T00:54:58.455Z,16.67
2019-04-14T00:57:29.046Z,15.57
2019-04-14T01:00:01.675Z,15.10
2019-04-14T01:02:31.875Z,14.67
2019-04-14T01:05:02.526Z,15.00
2019-04-14T01:07:32.708Z,15.77
2019-04-14T01:10:02.514Z,15.87
2019-04-14T01:12:32.198Z,14.90
2019-04-14T01:15:02.977Z,16.60
2019-04-14T01:17:33.075Z,15.87
2019-04-14T01:20:03.610Z,15.53
2019-04-14T01:22:33.669Z,16.10
2019-04-14T01:25:04.255Z,15.60
2019-04-14T01:27:36.308Z,16.30
2019-04-14T01:30:07.131Z,16.00
2019-04-14T01:32:37.230Z,15.67
2019-04-14T01:35:09.533Z,16.20
2019-04-14T01:37:39.740Z,15.40
2019-04-14T01:40:09.979Z,17.20
2019-04-14T01:42:39.888Z,16.93
2019-04-14T01:45:12.559Z,15.50
2019-04-14T01:47:42.174Z,16.20
2019-04-14T01:50:12.764Z,16.17
2019-04-14T01:52:58.921Z,16.43
2019-04-14T01:55:48.355Z,14.90
2019-04-14T01:58:25.410Z,14.47
2019-04-14T02:01:19.886Z,15.30
2019-04-14T02:03:49.855Z,14.23
2019-04-14T02:06:20.187Z,15.13
2019-04-14T02:08:50.178Z,15.83
2019-04-14T02:11:20.602Z,15.50
2019-04-14T02:13:52.913Z,15.43
2019-04-14T02:16:32.334Z,15.53
2019-04-14T02:18:55.305Z,16.80
2019-04-14T02:21:25.986Z,15.30
2019-04-14T02:23:56.149Z,16.53
2019-04-14T02:26:26.268Z,15.73
2019-04-14T02:28:57.169Z,15.93
2019-04-14T02:31:53.105Z,15.07
2019-04-14T02:37:04.424Z,16.73
2019-04-14T02:44:38.068Z,16.13
2019-04-14T02:47:27.430Z,17.43
2019-04-14T02:49:47.147Z,16.17
2019-04-14T02:52:12.107Z,16.33
2019-04-14T02:57:17.377Z,16.20
2019-04-14T02:59:56.969Z,17.17
2019-04-14T03:04:51.034Z,15.90
2019-04-14T03:07:41.346Z,17.20
2019-04-14T03:09:53.791Z,16.43
2019-04-14T03:12:34.645Z,16.70
2019-04-14T03:18:20.463Z,16.97
2019-04-14T03:21:01.475Z,16.30
2019-04-14T03:26:10.161Z,16.17
2019-04-14T03:28:45.558Z,17.03
2019-04-14T03:31:39.167Z,17.80
2019-04-14T03:41:30.054Z,17.27
2019-04-14T03:43:54.261Z,16.33
2019-04-14T03:49:06.104Z,16.60
2019-04-14T03:53:59.830Z,17.27
2019-04-14T03:56:46.842Z,17.50
2019-04-14T03:59:17.527Z,16.57
2019-04-14T04:01:47.918Z,17.43
2019-04-14T04:04:18.410Z,17.97
2019-04-14T04:06:48.586Z,17.77
2019-04-14T04:09:19.392Z,18.07
2019-04-14T04:11:52.162Z,17.07
2019-04-14T04:14:22.432Z,16.33
2019-04-14T04:16:57.347Z,16.90
2019-04-14T04:20:04.545Z,17.10
2019-04-14T04:22:52.252Z,16.90
2019-04-14T04:25:39.969Z,17.43
2019-04-14T04:28:25.613Z,18.07
2019-04-14T04:31:04.549Z,19.13
2019-04-14T04:33:54.347Z,18.77
2019-04-14T04:36:42.875Z,18.97
2019-04-14T04:39:19.630Z,17.77
2019-04-14T04:41:49.441Z,17.70
2019-04-14T04:44:20.133Z,20.13
2019-04-14T04:46:50.479Z,19.83
2019-04-14T04:49:23.102Z,19.30
2019-04-14T04:51:51.398Z,18.57
2019-04-14T04:54:21.127Z,18.27
2019-04-14T04:56:51.573Z,19.17
2019-04-14T04:59:21.362Z,21.80
2019-04-14T05:01:51.539Z,21.17
2019-04-14T05:04:22.031Z,21.37
2019-04-14T05:06:59.467Z,20.30
2019-04-14T05:09:47.522Z,19.97
2019-04-14T05:12:28.838Z,19.83
2019-04-14T05:15:20.490Z,20.50
2019-04-14T05:17:51.667Z,20.70
2019-04-14T05:20:22.469Z,21.63
2019-04-14T05:22:52.957Z,22.00
2019-04-14T05:25:23.298Z,21.70
2019-04-14T05:27:53.808Z,22.37
2019-04-14T05:30:24.291Z,21.80
2019-04-14T05:32:54.384Z,21.67
2019-04-14T05:35:24.852Z,21.43
2019-04-14T05:37:55.105Z,22.90
2019-04-14T05:40:25.618Z,23.23
2019-04-14T05:42:55.900Z,22.43
2019-04-14T05:45:26.252Z,21.53
2019-04-14T05:47:56.498Z,24.07
2019-04-14T05:50:27.190Z,23.83
2019-04-14T05:52:57.843Z,23.03
2019-04-14T05:55:28.429Z,23.73
2019-04-14T05:57:59.196Z,23.33
2019-04-14T06:00:29.975Z,24.50
2019-04-14T06:02:59.610Z,25.07
2019-04-14T06:05:31.792Z,24.63
2019-04-14T06:08:05.442Z,24.10
2019-04-14T06:10:35.583Z,26.00
2019-04-14T06:13:05.146Z,24.60
2019-04-14T06:15:35.686Z,24.63
2019-04-14T06:18:05.407Z,24.77
2019-04-14T06:20:35.347Z,25.37
2019-04-14T06:23:04.882Z,25.30
2019-04-14T06:25:36.453Z,25.17
2019-04-14T06:28:06.247Z,24.37
2019-04-14T06:30:58.833Z,24.17
2019-04-14T06:33:34.014Z,25.03
2019-04-14T06:36:25.664Z,23.73
2019-04-14T06:39:01.632Z,23.37
2019-04-14T06:41:31.218Z,24.20
2019-04-14T06:44:00.758Z,23.37
2019-04-14T06:46:30.326Z,22.77
2019-04-14T06:48:59.871Z,23.17
2019-04-14T06:51:29.419Z,22.37
2019-04-14T06:53:58.998Z,21.17
2019-04-14T06:56:28.535Z,24.20
2019-04-14T06:58:58.071Z,21.90
2019-04-14T07:01:28.747Z,21.10
2019-04-14T07:03:58.282Z,25.43
2019-04-14T07:06:27.807Z,23.07
2019-04-14T07:08:57.410Z,23.87
2019-04-14T07:11:26.983Z,23.30
2019-04-14T07:13:56.519Z,21.73
2019-04-14T07:16:26.079Z,23.07
2019-04-14T07:18:55.614Z,22.97
2019-04-14T07:21:25.163Z,22.70
2019-04-14T07:23:54.744Z,21.73
2019-04-14T07:26:24.250Z,24.23
2019-04-14T07:28:56.877Z,23.43
2019-04-14T07:31:45.613Z,23.63
2019-04-14T07:34:32.578Z,22.10
2019-04-14T07:37:19.841Z,23.27
2019-04-14T07:39:56.390Z,21.63
2019-04-14T07:42:51.080Z,21.83
2019-04-14T07:45:31.031Z,22.00
2019-04-14T07:48:21.562Z,21.97
2019-04-14T07:51:00.650Z,22.43
2019-04-14T07:53:46.306Z,21.43
2019-04-14T07:56:37.966Z,20.40
2019-04-14T07:59:16.303Z,20.53
2019-04-14T08:01:52.678Z,20.07
2019-04-14T08:04:26.570Z,21.00
2019-04-14T08:06:58.200Z,20.07
2019-04-14T08:09:27.749Z,21.67
2019-04-14T08:11:57.330Z,19.60
2019-04-14T08:14:26.862Z,20.60
2019-04-14T08:16:56.402Z,20.13
2019-04-14T08:19:25.964Z,21.27
2019-04-14T08:21:55.505Z,18.83
2019-04-14T08:24:25.035Z,20.40
2019-04-14T08:26:54.586Z,19.87
2019-04-14T08:29:24.107Z,20.77
2019-04-14T08:31:53.643Z,20.50
2019-04-14T08:34:23.246Z,21.00
2019-04-14T08:36:52.778Z,21.10
2019-04-14T08:39:22.314Z,21.70
2019-04-14T08:41:58.952Z,21.20
2019-04-14T08:44:33.911Z,20.13
2019-04-14T08:47:27.999Z,20.40
2019-04-14T08:50:19.260Z,20.93
2019-04-14T08:53:06.431Z,21.40
2019-04-14T08:55:53.732Z,20.20
2019-04-14T08:58:40.787Z,22.13
2019-04-14T09:01:13.315Z,21.97
2019-04-14T09:03:56.788Z,21.23
2019-04-14T09:06:45.218Z,19.60
2019-04-14T09:09:26.750Z,20.63
2019-04-14T09:12:16.246Z,21.43
2019-04-14T09:14:56.292Z,21.33
2019-04-14T09:17:17.256Z,20.93
2019-04-14T09:19:46.806Z,21.37
2019-04-14T09:22:16.363Z,20.90
2019-04-14T09:24:45.896Z,21.13
2019-04-14T09:27:15.474Z,21.97
2019-04-14T09:29:45.039Z,21.23
2019-04-14T09:32:15.013Z,20.60
2019-04-14T09:34:44.566Z,20.30
2019-04-14T09:37:14.133Z,19.73
2019-04-14T09:39:43.670Z,20.03
2019-04-14T09:42:13.206Z,20.77
2019-04-14T09:44:42.773Z,20.60
2019-04-14T09:47:12.321Z,20.07
2019-04-14T09:49:41.859Z,18.53
2019-04-14T09:52:11.440Z,17.40
2019-04-14T09:54:40.967Z,18.90
2019-04-14T09:57:10.511Z,18.87
2019-04-14T09:59:40.097Z,17.00
2019-04-14T10:02:09.678Z,17.47
2019-04-14T10:04:39.275Z,17.80
2019-04-14T10:07:08.854Z,16.93
2019-04-14T10:09:38.412Z,16.53
2019-04-14T10:12:07.967Z,16.10
2019-04-14T10:14:37.544Z,16.97
2019-04-14T10:17:07.089Z,14.97
2019-04-14T10:19:36.637Z,14.90
2019-04-14T10:22:06.293Z,14.07
2019-04-14T10:24:35.800Z,14.60
2019-04-14T10:27:05.462Z,14.60
2019-04-14T10:29:35.046Z,12.57
2019-04-14T10:32:04.594Z,13.30
2019-04-14T10:34:34.143Z,13.33
2019-04-14T10:37:03.712Z,13.10
2019-04-14T10:39:33.269Z,13.10
2019-04-14T10:42:02.803Z,11.87
2019-04-14T10:44:32.397Z,10.87
2019-04-14T10:47:01.941Z,13.13
2019-04-14T10:49:31.467Z,12.33
2019-04-14T10:52:01.047Z,11.63
2019-04-14T10:54:30.603Z,13.60
2019-04-14T10:57:01.189Z,12.40
2019-04-14T10:59:31.037Z,11.83
2019-04-14T11:02:00.578Z,12.10
2019-04-14T11:04:30.140Z,13.33
2019-04-14T11:07:11.033Z,11.73
2019-04-14T11:09:40.574Z,11.77
2019-04-14T11:12:10.117Z,11.23
2019-04-14T11:14:39.675Z,10.83
2019-04-14T11:17:09.403Z,11.63
2019-04-14T11:19:38.984Z,11.77
2019-04-14T11:22:08.554Z,11.73
2019-04-14T11:24:38.100Z,11.30
2019-04-14T11:27:07.670Z,11.73
2019-04-14T11:29:37.229Z,11.33
2019-04-14T11:32:43.804Z,10.83
2019-04-14T11:35:26.490Z,10.57
2019-04-14T11:38:20.998Z,10.87
2019-04-14T11:40:52.934Z,11.27
2019-04-14T11:43:22.504Z,11.53
2019-04-14T11:45:52.034Z,12.10
2019-04-14T11:48:22.017Z,11.47
2019-04-14T11:50:51.576Z,11.93
2019-04-14T11:53:21.123Z,11.67
2019-04-14T11:55:50.738Z,12.37
2019-04-14T11:58:20.283Z,12.17
2019-04-14T12:01:07.487Z,11.43
2019-04-14T12:03:48.855Z,10.80
2019-04-14T12:06:40.505Z,11.23
2019-04-14T12:09:35.674Z,12.23
2019-04-14T12:12:07.582Z,11.03
2019-04-14T12:14:37.158Z,13.00
2019-04-14T12:17:06.707Z,11.63
2019-04-14T12:19:36.269Z,11.40
2019-04-14T12:22:08.473Z,11.43
2019-04-14T12:24:37.122Z,11.10
2019-04-14T12:27:06.743Z,10.90
2019-04-14T12:29:36.875Z,10.90
2019-04-14T12:32:08.546Z,10.87
2019-04-14T12:34:38.288Z,10.30
2019-04-14T12:37:07.834Z,11.03
2019-04-14T12:39:37.455Z,11.27
2019-04-14T12:42:25.889Z,11.93
2019-04-14T12:45:11.087Z,10.50
2019-04-14T12:48:11.613Z,11.13
2019-04-14T12:50:44.942Z,11.90
2019-04-14T12:53:14.520Z,12.60
2019-04-14T12:55:44.061Z,11.60
2019-04-14T12:58:14.974Z,12.43
2019-04-14T13:01:06.803Z,11.27
2019-04-14T13:03:38.164Z,10.80
2019-04-14T13:06:07.916Z,11.40
2019-04-14T13:08:37.509Z,12.93
2019-04-14T13:11:07.894Z,11.83
2019-04-14T13:13:37.423Z,11.80
2019-04-14T13:16:07.134Z,11.17
2019-04-14T13:18:36.715Z,11.70
2019-04-14T13:21:06.266Z,11.97
2019-04-14T13:23:35.814Z,11.50
2019-04-14T13:26:05.426Z,11.77
2019-04-14T13:28:34.967Z,12.60
2019-04-14T13:31:04.502Z,11.63
2019-04-14T13:33:34.058Z,10.90
2019-04-14T13:36:03.591Z,12.97
2019-04-14T13:38:33.122Z,13.37
2019-04-14T13:41:02.703Z,12.10
2019-04-14T13:43:32.239Z,11.53
2019-04-14T13:46:01.777Z,14.87
2019-04-14T13:48:31.349Z,13.00
2019-04-14T13:51:00.898Z,12.07
2019-04-14T13:53:30.448Z,12.03
2019-04-14T13:56:00.020Z,12.43
2019-04-14T13:58:29.557Z,12.37
2019-04-14T14:00:59.308Z,11.73
2019-04-14T14:03:28.942Z,11.70
2019-04-14T14:05:58.473Z,11.57
2019-04-14T14:08:28.007Z,11.77
2019-04-14T14:11:05.872Z,12.10
2019-04-14T14:13:41.565Z,12.23
2019-04-14T14:16:32.978Z,11.47
2019-04-14T14:19:18.424Z,11.97
2019-04-14T14:22:09.725Z,14.47
2019-04-14T14:24:45.554Z,15.33
2019-04-14T14:27:15.395Z,15.73
2019-04-14T14:29:44.954Z,15.47
2019-04-14T14:32:21.258Z,15.30
2019-04-14T14:34:50.800Z,15.13
2019-04-14T14:37:20.326Z,15.47
2019-04-14T14:39:49.906Z,13.60
2019-04-14T14:42:19.439Z,15.00
2019-04-14T14:44:54.603Z,14.50
2019-04-14T14:47:27.468Z,14.87
2019-04-14T14:50:21.974Z,13.10
2019-04-14T14:52:51.499Z,13.67
2019-04-14T14:55:21.051Z,13.73
2019-04-14T14:57:50.601Z,13.37
2019-04-14T15:00:32.283Z,13.23
2019-04-14T15:03:01.927Z,13.33
2019-04-14T15:05:31.498Z,14.00
2019-04-14T15:08:01.075Z,14.17
2019-04-14T15:10:30.646Z,15.20
2019-04-14T15:13:00.195Z,12.63
2019-04-14T15:15:30.750Z,13.80
2019-04-14T15:18:00.353Z,15.03
2019-04-14T15:20:30.290Z,13.90
2019-04-14T15:23:01.047Z,13.53
2019-04-14T15:25:30.775Z,14.07
2019-04-14T15:28:00.331Z,15.23
2019-04-14T15:30:29.870Z,15.17
2019-04-14T15:32:59.444Z,13.97
2019-04-14T15:35:29.196Z,16.17
2019-04-14T15:37:58.814Z,16.27
2019-04-14T15:40:28.380Z,16.50
2019-04-14T15:42:57.919Z,18.67
2019-04-14T15:45:27.446Z,18.90
2019-04-14T15:47:56.997Z,17.00
2019-04-14T15:50:26.544Z,15.93
2019-04-14T15:52:56.083Z,16.67
2019-04-14T15:55:25.638Z,16.07
2019-04-14T15:58:32.244Z,16.57
2019-04-14T16:01:36.087Z,15.83
2019-04-14T16:04:15.495Z,17.43
2019-04-14T16:07:13.106Z,15.13
2019-04-14T16:09:48.930Z,16.47
2019-04-14T16:12:40.659Z,16.60
2019-04-14T16:15:32.670Z,16.53
2019-04-14T16:18:21.163Z,16.60
2019-04-14T16:20:50.705Z,16.73
2019-04-14T16:23:20.249Z,18.20
2019-04-14T16:25:55.514Z,16.43
2019-04-14T16:28:39.378Z,18.10
2019-04-14T16:31:33.891Z,17.67
2019-04-14T16:34:16.241Z,18.27
2019-04-14T16:36:46.601Z,17.93
2019-04-14T16:39:16.179Z,19.47
2019-04-14T16:41:45.790Z,16.90
2019-04-14T16:44:15.958Z,18.17
2019-04-14T16:46:45.815Z,17.80
2019-04-14T16:49:15.336Z,17.80
2019-04-14T16:51:57.695Z,18.63
2019-04-14T16:54:44.762Z,17.97
2019-04-14T16:57:36.222Z,17.50
2019-04-14T17:00:07.750Z,17.60
2019-04-14T17:02:37.487Z,18.07
2019-04-14T17:05:07.355Z,18.37
2019-04-14T17:07:37.123Z,18.27
2019-04-14T17:10:06.931Z,20.53
2019-04-14T17:12:36.525Z,19.90
2019-04-14T17:15:24.847Z,20.07
2019-04-14T17:18:11.967Z,18.70
2019-04-14T17:20:51.859Z,19.60
2019-04-14T17:23:43.306Z,19.50
2019-04-14T17:26:28.727Z,21.33
2019-04-14T17:29:03.531Z,18.97
2019-04-14T17:31:51.483Z,19.10
2019-04-14T17:34:49.151Z,20.30
2019-04-14T17:37:35.873Z,19.60
2019-04-14T17:40:12.802Z,21.47
2019-04-14T17:43:01.338Z,20.77
2019-04-14T17:45:39.192Z,20.63
2019-04-14T17:48:30.866Z,20.70
2019-04-14T17:51:05.401Z,22.60
2019-04-14T17:53:55.765Z,22.07
2019-04-14T17:56:55.747Z,19.97
2019-04-14T17:59:32.965Z,21.17
2019-04-14T18:02:21.531Z,22.20
2019-04-14T18:05:08.555Z,24.23
2019-04-14T18:07:45.523Z,22.57
2019-04-14T18:10:28.522Z,24.17
2019-04-14T18:13:15.980Z,22.03
2019-04-14T18:15:55.762Z,23.77
2019-04-14T18:18:31.324Z,24.53
2019-04-14T18:21:04.275Z,23.87
2019-04-14T18:23:33.987Z,23.33
2019-04-14T18:26:04.135Z,23.97
2019-04-14T18:28:51.488Z,24.70
2019-04-14T18:31:37.307Z,24.17
2019-04-14T18:34:24.358Z,25.03
2019-04-14T18:37:15.927Z,23.93
2019-04-14T18:39:58.602Z,24.87
2019-04-14T18:42:52.954Z,24.60
2019-04-14T18:45:53.994Z,22.03
2019-04-14T18:48:54.554Z,23.77
2019-04-14T18:51:49.257Z,24.47
2019-04-14T18:54:54.122Z,24.60
2019-04-14T18:57:34.123Z,26.93
2019-04-14T19:00:21.718Z,25.83
2019-04-14T19:02:51.739Z,25.30
2019-04-14T19:05:21.372Z,24.80
2019-04-14T19:07:50.930Z,25.60
2019-04-14T19:10:21.351Z,25.50
2019-04-14T19:13:09.350Z,24.03
2019-04-14T19:15:49.013Z,24.57
2019-04-14T19:18:21.983Z,25.23
2019-04-14T19:21:01.127Z,26.03
2019-04-14T19:23:31.044Z,25.33
2019-04-14T19:26:00.583Z,25.10
2019-04-14T19:28:30.344Z,23.40
2019-04-14T19:31:01.018Z,22.87
2019-04-14T19:33:30.806Z,24.23
2019-04-14T19:36:00.384Z,22.87
2019-04-14T19:38:32.082Z,23.73
2019-04-14T19:41:01.655Z,24.33
2019-04-14T19:43:32.633Z,23.33
2019-04-14T19:46:02.279Z,24.33
2019-04-14T19:48:31.879Z,23.60
2019-04-14T19:51:01.805Z,22.83
2019-04-14T19:53:32.381Z,23.27
2019-04-14T19:56:03.995Z,21.83
2019-04-14T19:58:34.712Z,22.23
2019-04-14T20:01:07.089Z,21.87
2019-04-14T20:03:36.023Z,20.90
2019-04-14T20:06:05.854Z,23.23
2019-04-14T20:08:35.433Z,20.40
2019-04-14T20:11:05.063Z,20.77
2019-04-14T20:13:39.047Z,20.20
2019-04-14T20:16:26.195Z,18.23
2019-04-14T20:19:13.750Z,18.47
2019-04-14T20:22:08.363Z,17.13
2019-04-14T20:24:46.683Z,19.00
2019-04-14T20:27:35.193Z,18.93
2019-04-14T20:30:09.362Z,17.93
2019-04-14T20:32:40.495Z,18.13
2019-04-14T20:35:10.522Z,17.90
2019-04-14T20:37:40.207Z,16.17
2019-04-14T20:40:10.049Z,16.93
2019-04-14T20:42:39.746Z,17.23
2019-04-14T20:45:11.020Z,16.13
2019-04-14T20:47:40.757Z,16.07
2019-04-14T20:50:10.438Z,16.67
2019-04-14T20:52:40.075Z,16.27
2019-04-14T20:55:10.188Z,16.67
2019-04-14T20:57:39.846Z,18.33
2019-04-14T21:00:10.552Z,16.93
2019-04-14T21:02:57.817Z,17.70
2019-04-14T21:05:45.023Z,18.40
2019-04-14T21:08:39.518Z,17.50
2019-04-14T21:11:18.779Z,17.87
2019-04-14T21:14:25.577Z,19.77
2019-04-14T21:17:22.818Z,18.43
2019-04-14T21:20:04.698Z,19.50
2019-04-14T21:22:51.800Z,19.33
2019-04-14T21:26:00.818Z,20.27
2019-04-14T21:28:48.526Z,19.67
2019-04-14T21:31:36.963Z,19.43
2019-04-14T21:34:28.184Z,21.03
2019-04-14T21:37:15.643Z,20.63
2019-04-14T21:40:12.927Z,20.47
2019-04-14T21:42:43.041Z,21.13
2019-04-14T21:45:12.682Z,23.13
2019-04-14T21:47:42.255Z,21.80
2019-04-14T21:50:12.302Z,22.97
2019-04-14T21:52:44.310Z,21.97
2019-04-14T21:55:14.016Z,22.90
2019-04-14T21:58:05.506Z,22.80
2019-04-14T22:01:41.811Z,23.30
2019-04-14T22:04:29.102Z,24.80
2019-04-14T22:07:02.028Z,25.07
2019-04-14T22:09:34.715Z,24.93
2019-04-14T22:12:06.490Z,26.70
2019-04-14T22:14:36.141Z,25.33
2019-04-14T22:17:05.689Z,26.73
2019-04-14T22:19:35.264Z,25.10
2019-04-14T22:22:04.846Z,25.87
2019-04-14T22:24:34.380Z,25.30
2019-04-14T22:27:03.951Z,27.50
2019-04-14T22:29:33.479Z,26.00
2019-04-14T22:32:03.019Z,26.27
2019-04-14T22:34:32.578Z,25.20
2019-04-14T22:37:02.115Z,26.17
2019-04-14T22:39:31.650Z,26.40
2019-04-14T22:42:01.210Z,25.33
2019-04-14T22:44:30.765Z,25.20
2019-04-14T22:47:00.310Z,26.00
2019-04-14T22:49:29.877Z,26.47
2019-04-14T22:51:59.554Z,25.33
2019-04-14T22:54:29.121Z,24.80
2019-04-14T22:56:58.706Z,24.10
2019-04-14T22:59:28.224Z,24.80
2019-04-14T23:02:05.561Z,24.13
2019-04-14T23:04:50.534Z,24.90
2019-04-14T23:07:48.031Z,23.70
2019-04-14T23:10:45.398Z,24.33
2019-04-14T23:13:39.903Z,23.13
2019-04-14T23:16:26.831Z,24.93
2019-04-14T23:19:10.028Z,24.17
2019-04-14T23:21:46.903Z,25.67
2019-04-14T23:24:19.150Z,23.67
2019-04-14T23:26:52.656Z,23.97
2019-04-14T23:29:19.898Z,24.67
2019-04-14T23:31:49.479Z,24.57
2019-04-14T23:34:19.030Z,25.43
2019-04-14T23:36:48.550Z,25.93
2019-04-14T23:39:18.142Z,25.47
2019-04-14T23:41:47.694Z,24.90
2019-04-14T23:44:17.234Z,25.77
2019-04-14T23:46:46.796Z,25.73
2019-04-14T23:49:16.336Z,27.53
2019-04-14T23:51:45.895Z,28.37
2019-04-14T23:54:15.575Z,26.33
2019-04-14T23:56:45.114Z,24.60
2019-04-14T23:59:14.675Z,25.47
